createdAt,value
2023-02-18T00:01:21.465Z,2.30
2023-02-18T00:05:27.842Z,2.73
2023-02-18T00:09:20.300Z,2.80
2023-02-18T00:12:38.433Z,2.70
2023-02-18T00:15:43.688Z,2.80
2023-02-18T00:18:47.595Z,3.03
2023-02-18T00:21:51.390Z,2.13
2023-02-18T00:24:55.297Z,2.13
2023-02-18T00:27:59.251Z,2.47
2023-02-18T00:31:09.355Z,2.30
2023-02-18T00:34:14.746Z,2.20
2023-02-18T00:37:18.493Z,2.53
2023-02-18T00:40:22.547Z,2.20
2023-02-18T00:43:26.543Z,2.17
2023-02-18T00:46:32.276Z,2.10
2023-02-18T00:49:36.405Z,2.30
2023-02-18T00:52:40.252Z,2.67
2023-02-18T00:55:45.551Z,2.00
2023-02-18T00:58:49.946Z,2.07
2023-02-18T01:01:55.208Z,2.30
2023-02-18T01:04:59.247Z,2.70
2023-02-18T01:08:03.332Z,3.73
2023-02-18T01:11:08.088Z,1.83
2023-02-18T01:14:11.924Z,1.93
2023-02-18T01:17:17.262Z,3.00
2023-02-18T01:20:22.042Z,3.00
2023-02-18T01:23:26.562Z,2.40
2023-02-18T01:26:30.528Z,2.70
2023-02-18T01:29:34.391Z,2.87
2023-02-18T01:32:40.248Z,2.70
2023-02-18T01:35:44.200Z,2.43
2023-02-18T01:38:58.808Z,2.40
2023-02-18T01:42:58.936Z,2.37
2023-02-18T01:47:03.571Z,2.30
2023-02-18T01:51:09.649Z,2.50
2023-02-18T01:54:41.313Z,3.00
2023-02-18T01:58:30.584Z,2.33
2023-02-18T02:02:35.324Z,2.63
2023-02-18T02:06:38.008Z,3.40
2023-02-18T02:10:44.185Z,2.83
2023-02-18T02:15:04.898Z,2.80
2023-02-18T02:19:27.960Z,2.13
2023-02-18T02:23:58.303Z,2.50
2023-02-18T02:28:38.269Z,2.20
2023-02-18T02:33:16.594Z,3.20
2023-02-18T02:37:32.112Z,1.90
2023-02-18T02:41:48.808Z,2.30
2023-02-18T02:45:54.488Z,2.40
2023-02-18T02:49:20.791Z,1.60
2023-02-18T02:53:28.930Z,1.87
2023-02-18T02:57:56.399Z,1.63
2023-02-18T03:02:03.895Z,2.07
2023-02-18T03:06:24.104Z,2.27
2023-02-18T03:11:00.915Z,1.83
2023-02-18T03:15:18.528Z,2.07
2023-02-18T03:19:17.436Z,2.13
2023-02-18T03:23:17.662Z,1.97
2023-02-18T03:27:17.536Z,2.37
2023-02-18T03:31:19.887Z,1.93
2023-02-18T03:34:54.348Z,3.27
2023-02-18T03:38:45.533Z,2.60
2023-02-18T03:42:53.438Z,2.07
2023-02-18T03:46:29.761Z,1.97
2023-02-18T03:49:40.450Z,1.87
2023-02-18T03:53:35.696Z,1.70
2023-02-18T03:56:47.706Z,1.70
2023-02-18T04:00:50.592Z,2.13
2023-02-18T04:04:46.510Z,1.80
2023-02-18T04:08:50.292Z,1.80
2023-02-18T04:12:44.099Z,2.23
2023-02-18T04:16:45.169Z,2.20
2023-02-18T04:20:45.294Z,2.20
2023-02-18T04:24:44.797Z,2.83
2023-02-18T04:28:46.173Z,2.07
2023-02-18T04:33:01.155Z,2.23
2023-02-18T04:37:29.093Z,1.87
2023-02-18T04:41:37.354Z,2.20
2023-02-18T04:45:32.428Z,2.10
2023-02-18T04:50:00.244Z,2.10
2023-02-18T04:53:25.369Z,2.13
2023-02-18T04:56:32.582Z,1.97
2023-02-18T04:59:36.386Z,1.63
2023-02-18T05:02:40.282Z,2.53
2023-02-18T05:05:45.950Z,2.10
2023-02-18T05:08:49.743Z,2.00
2023-02-18T05:11:53.504Z,2.17
2023-02-18T05:14:57.354Z,1.70
2023-02-18T05:18:10.294Z,2.53
2023-02-18T05:21:15.768Z,1.70
2023-02-18T05:24:19.545Z,1.60
2023-02-18T05:27:23.404Z,2.37
2023-02-18T05:30:27.181Z,2.97
2023-02-18T05:33:30.982Z,2.30
2023-02-18T05:36:36.460Z,1.80
2023-02-18T05:39:40.625Z,2.10
2023-02-18T05:42:44.775Z,2.90
2023-02-18T05:45:48.687Z,2.50
2023-02-18T05:48:52.662Z,2.77
2023-02-18T05:51:58.252Z,3.30
2023-02-18T05:55:02.044Z,3.10
2023-02-18T05:58:06.083Z,2.90
2023-02-18T06:01:09.958Z,2.43
2023-02-18T06:04:14.316Z,3.00
2023-02-18T06:07:20.753Z,3.00
2023-02-18T06:10:24.637Z,3.23
2023-02-18T06:13:28.706Z,3.27
2023-02-18T06:16:33.117Z,3.40
2023-02-18T06:19:36.920Z,2.83
2023-02-18T06:22:42.172Z,3.40
2023-02-18T06:25:46.096Z,4.30
2023-02-18T06:28:50.085Z,3.43
2023-02-18T06:31:53.888Z,4.30
2023-02-18T06:34:57.777Z,3.83
2023-02-18T06:38:02.962Z,3.40
2023-02-18T06:41:07.436Z,3.90
2023-02-18T06:44:11.446Z,3.77
2023-02-18T06:47:15.274Z,4.27
2023-02-18T06:50:19.733Z,4.30
2023-02-18T06:53:25.030Z,3.27
2023-02-18T06:56:30.912Z,3.70
2023-02-18T06:59:35.210Z,3.90
2023-02-18T07:02:39.177Z,3.73
2023-02-18T07:05:52.747Z,4.47
2023-02-18T07:08:58.474Z,4.37
2023-02-18T07:12:16.398Z,4.97
2023-02-18T07:15:24.572Z,5.17
2023-02-18T07:18:28.379Z,5.43
2023-02-18T07:21:32.293Z,5.53
2023-02-18T07:24:38.416Z,6.20
2023-02-18T07:27:42.619Z,6.67
2023-02-18T07:30:46.741Z,6.43
2023-02-18T07:33:50.628Z,6.53
2023-02-18T07:36:54.413Z,5.87
2023-02-18T07:39:59.867Z,6.97
2023-02-18T07:43:05.901Z,6.13
2023-02-18T07:46:13.437Z,6.40
2023-02-18T07:49:19.970Z,6.87
2023-02-18T07:52:35.420Z,7.37
2023-02-18T07:55:50.648Z,9.23
2023-02-18T07:58:54.578Z,8.93
2023-02-18T08:01:58.527Z,10.20
2023-02-18T08:05:02.352Z,11.23
2023-02-18T08:08:06.682Z,12.57
2023-02-18T08:11:18.833Z,12.80
2023-02-18T08:14:23.451Z,14.53
2023-02-18T08:17:27.271Z,17.43
2023-02-18T08:20:31.192Z,15.63
2023-02-18T08:23:35.827Z,15.73
2023-02-18T08:26:54.310Z,15.30
2023-02-18T08:30:03.387Z,14.70
2023-02-18T08:33:07.319Z,14.60
2023-02-18T08:36:11.790Z,14.70
2023-02-18T08:39:15.647Z,15.53
2023-02-18T08:42:20.917Z,14.23
2023-02-18T08:45:24.801Z,14.53
2023-02-18T08:48:29.537Z,14.33
2023-02-18T08:51:33.603Z,14.27
2023-02-18T08:54:52.166Z,13.63
2023-02-18T08:58:07.902Z,11.77
2023-02-18T09:01:29.714Z,10.67
2023-02-18T09:04:45.750Z,10.90
2023-02-18T09:07:49.642Z,8.50
2023-02-18T09:11:42.127Z,9.33
2023-02-18T09:15:10.816Z,8.50
2023-02-18T09:18:50.752Z,8.20
2023-02-18T09:22:05.523Z,7.80
2023-02-18T09:25:26.338Z,7.97
2023-02-18T09:29:04.473Z,7.60
2023-02-18T09:32:50.582Z,7.00
2023-02-18T09:36:08.177Z,7.57
2023-02-18T09:39:15.896Z,6.00
2023-02-18T09:42:25.920Z,5.97
2023-02-18T09:45:30.455Z,5.63
2023-02-18T09:48:38.804Z,6.20
2023-02-18T09:51:42.732Z,6.93
2023-02-18T09:54:46.687Z,4.40
2023-02-18T09:57:54.394Z,3.53
2023-02-18T10:01:15.994Z,3.47
2023-02-18T10:04:25.035Z,3.00
2023-02-18T10:07:33.247Z,3.37
2023-02-18T10:10:43.891Z,3.63
2023-02-18T10:13:48.359Z,3.70
2023-02-18T10:16:55.593Z,3.83
2023-02-18T10:20:07.866Z,4.47
2023-02-18T10:23:15.164Z,5.43
2023-02-18T10:26:20.899Z,5.97
2023-02-18T10:29:26.809Z,5.60
2023-02-18T10:32:39.234Z,5.90
2023-02-18T10:35:54.675Z,5.33
2023-02-18T10:39:32.981Z,5.93
2023-02-18T10:42:56.242Z,5.13
2023-02-18T10:46:13.950Z,5.00
2023-02-18T10:49:48.396Z,5.60
2023-02-18T10:53:01.120Z,4.30
2023-02-18T10:56:07.033Z,4.30
2023-02-18T10:59:20.779Z,4.67
2023-02-18T11:02:30.973Z,4.30
2023-02-18T11:05:38.272Z,3.63
2023-02-18T11:08:47.333Z,3.93
2023-02-18T11:12:01.356Z,3.60
2023-02-18T11:15:22.412Z,2.67
2023-02-18T11:18:37.907Z,3.00
2023-02-18T11:21:41.864Z,2.27
2023-02-18T11:24:50.396Z,2.83
2023-02-18T11:27:58.775Z,2.10
2023-02-18T11:31:06.030Z,2.70
2023-02-18T11:34:18.656Z,2.33
2023-02-18T11:37:24.632Z,1.90
2023-02-18T11:40:33.777Z,2.10
2023-02-18T11:43:42.282Z,2.90
2023-02-18T11:46:59.561Z,3.20
2023-02-18T11:50:23.581Z,4.17
2023-02-18T11:53:31.924Z,8.00
2023-02-18T11:56:39.725Z,5.53
2023-02-18T11:59:45.626Z,4.57
2023-02-18T12:02:49.880Z,5.20
2023-02-18T12:05:54.128Z,5.07
2023-02-18T12:09:04.951Z,5.23
2023-02-18T12:12:19.030Z,3.30
2023-02-18T12:15:35.471Z,3.33
2023-02-18T12:19:03.632Z,2.40
2023-02-18T12:22:23.011Z,2.83
2023-02-18T12:25:41.177Z,3.30
2023-02-18T12:29:06.547Z,2.77
2023-02-18T12:32:26.243Z,2.70
2023-02-18T12:35:53.615Z,2.77
2023-02-18T12:39:12.648Z,2.37
2023-02-18T12:42:36.045Z,2.73
2023-02-18T12:46:30.309Z,3.73
2023-02-18T12:50:23.666Z,2.93
2023-02-18T12:53:57.199Z,2.77
2023-02-18T12:57:24.469Z,2.70
2023-02-18T13:01:42.992Z,2.90
2023-02-18T13:06:04.371Z,3.13
2023-02-18T13:10:18.518Z,3.20
2023-02-18T13:14:26.837Z,2.97
2023-02-18T13:17:55.276Z,3.60
2023-02-18T13:21:14.910Z,3.40
2023-02-18T13:25:11.628Z,3.17
2023-02-18T13:28:30.594Z,3.10
2023-02-18T13:32:03.844Z,3.93
2023-02-18T13:36:08.566Z,3.17
2023-02-18T13:39:37.065Z,3.70
2023-02-18T13:42:40.834Z,2.77
2023-02-18T13:46:53.012Z,3.03
2023-02-18T13:51:24.402Z,2.67
2023-02-18T13:55:17.086Z,3.30
2023-02-18T13:59:34.826Z,2.33
2023-02-18T14:04:01.902Z,2.27
2023-02-18T14:08:40.837Z,2.60
2023-02-18T14:13:07.490Z,2.50
2023-02-18T14:17:33.126Z,2.60
2023-02-18T14:22:19.240Z,2.50
2023-02-18T14:25:41.667Z,2.40
2023-02-18T14:29:40.171Z,3.80
2023-02-18T14:33:37.935Z,2.67
2023-02-18T14:38:15.140Z,1.93
2023-02-18T14:42:25.182Z,2.57
2023-02-18T14:47:18.989Z,3.03
2023-02-18T14:51:37.588Z,2.00
2023-02-18T14:55:35.943Z,2.33
2023-02-18T14:59:39.659Z,2.33
2023-02-18T15:03:42.453Z,1.37
2023-02-18T15:07:51.862Z,2.00
2023-02-18T15:11:47.742Z,1.83
2023-02-18T15:15:06.809Z,1.97
2023-02-18T15:18:28.580Z,1.77
2023-02-18T15:21:41.121Z,2.17
2023-02-18T15:24:46.186Z,1.50
2023-02-18T15:27:55.121Z,2.03
2023-02-18T15:31:01.118Z,1.97
2023-02-18T15:34:36.194Z,1.43
2023-02-18T15:37:40.090Z,1.57
2023-02-18T15:40:48.354Z,1.20
2023-02-18T15:44:02.208Z,1.30
2023-02-18T15:47:10.872Z,1.47
2023-02-18T15:50:26.243Z,1.60
2023-02-18T15:53:31.900Z,1.37
2023-02-18T15:56:40.447Z,1.90
2023-02-18T15:59:55.793Z,1.47
2023-02-18T16:03:14.432Z,1.57
2023-02-18T16:06:25.512Z,1.90
2023-02-18T16:09:34.294Z,1.23
2023-02-18T16:12:40.882Z,1.67
2023-02-18T16:15:50.800Z,1.80
2023-02-18T16:18:54.997Z,1.97
2023-02-18T16:22:06.540Z,1.33
2023-02-18T16:25:20.405Z,1.93
2023-02-18T16:28:28.965Z,2.10
2023-02-18T16:31:32.750Z,1.40
2023-02-18T16:34:37.055Z,1.67
2023-02-18T16:37:46.096Z,1.70
2023-02-18T16:40:50.892Z,1.80
2023-02-18T16:43:54.708Z,1.60
2023-02-18T16:46:59.291Z,1.50
2023-02-18T16:50:03.382Z,0.83
2023-02-18T16:53:08.615Z,1.40
2023-02-18T16:56:18.950Z,1.17
2023-02-18T16:59:22.776Z,0.93
2023-02-18T17:02:33.091Z,1.27
2023-02-18T17:05:40.241Z,1.10
2023-02-18T17:08:46.045Z,1.40
2023-02-18T17:11:53.503Z,1.67
2023-02-18T17:14:57.296Z,1.30
2023-02-18T17:18:01.908Z,1.53
2023-02-18T17:21:06.501Z,1.03
2023-02-18T17:24:14.637Z,1.57
2023-02-18T17:27:18.562Z,1.57
2023-02-18T17:30:22.344Z,1.40
2023-02-18T17:33:27.241Z,1.80
2023-02-18T17:36:31.103Z,1.40
2023-02-18T17:39:36.389Z,1.37
2023-02-18T17:42:40.126Z,1.87
2023-02-18T17:45:51.821Z,1.43
2023-02-18T17:48:55.613Z,1.80
2023-02-18T17:51:59.658Z,2.07
2023-02-18T17:55:23.969Z,2.30
2023-02-18T17:58:28.407Z,2.43
2023-02-18T18:01:32.389Z,1.50
2023-02-18T18:04:36.316Z,1.73
2023-02-18T18:07:40.164Z,1.40
2023-02-18T18:10:53.353Z,1.23
2023-02-18T18:13:58.121Z,1.20
2023-02-18T18:17:03.118Z,1.37
2023-02-18T18:20:09.723Z,1.40
2023-02-18T18:23:16.444Z,1.40
2023-02-18T18:26:22.056Z,1.57
2023-02-18T18:29:26.586Z,2.13
2023-02-18T18:32:30.716Z,1.80
2023-02-18T18:35:38.520Z,2.30
2023-02-18T18:38:42.409Z,2.03
2023-02-18T18:41:48.125Z,1.87
2023-02-18T18:44:52.121Z,2.13
2023-02-18T18:47:56.817Z,2.33
2023-02-18T18:51:02.730Z,1.90
2023-02-18T18:54:07.090Z,2.10
2023-02-18T18:57:12.313Z,3.23
2023-02-18T19:00:19.754Z,2.20
2023-02-18T19:03:25.425Z,3.30
2023-02-18T19:06:29.182Z,3.03
2023-02-18T19:09:32.988Z,2.77
2023-02-18T19:12:38.193Z,4.03
2023-02-18T19:15:42.542Z,4.50
2023-02-18T19:18:47.011Z,4.23
2023-02-18T19:21:50.814Z,5.90
2023-02-18T19:24:54.563Z,6.00
2023-02-18T19:28:00.129Z,5.27
2023-02-18T19:31:08.270Z,6.03
2023-02-18T19:34:12.187Z,5.03
2023-02-18T19:37:15.989Z,5.43
2023-02-18T19:40:23.835Z,4.83
2023-02-18T19:43:29.146Z,5.43
2023-02-18T19:46:33.147Z,5.20
2023-02-18T19:49:36.952Z,5.80
2023-02-18T19:52:41.146Z,4.77
2023-02-18T19:55:44.921Z,5.67
2023-02-18T19:58:50.117Z,5.93
2023-02-18T20:01:54.758Z,4.90
2023-02-18T20:05:01.692Z,5.50
2023-02-18T20:08:05.572Z,5.30
2023-02-18T20:11:09.660Z,5.13
2023-02-18T20:14:15.715Z,5.37
2023-02-18T20:17:20.816Z,5.13
2023-02-18T20:20:26.959Z,5.07
2023-02-18T20:23:32.243Z,6.20
2023-02-18T20:26:36.237Z,6.10
2023-02-18T20:29:41.649Z,5.93
2023-02-18T20:32:45.406Z,6.37
2023-02-18T20:35:57.274Z,6.67
2023-02-18T20:39:15.346Z,5.90
2023-02-18T20:42:28.279Z,5.60
2023-02-18T20:45:57.602Z,5.13
2023-02-18T20:49:03.040Z,6.27
2023-02-18T20:52:08.165Z,5.20
2023-02-18T20:55:12.073Z,4.50
2023-02-18T20:58:16.139Z,4.93
2023-02-18T21:01:24.307Z,5.10
2023-02-18T21:04:28.546Z,5.23
2023-02-18T21:07:34.590Z,4.90
2023-02-18T21:10:41.827Z,4.00
2023-02-18T21:13:48.168Z,5.43
2023-02-18T21:16:53.335Z,4.27
2023-02-18T21:19:57.318Z,5.30
2023-02-18T21:23:02.545Z,4.50
2023-02-18T21:26:10.705Z,4.77
2023-02-18T21:29:17.041Z,4.93
2023-02-18T21:32:22.710Z,4.60
2023-02-18T21:35:27.388Z,5.23
2023-02-18T21:38:31.187Z,4.87
2023-02-18T21:41:40.101Z,5.47
2023-02-18T21:44:44.530Z,4.93
2023-02-18T21:47:49.985Z,5.50
2023-02-18T21:50:53.807Z,5.40
2023-02-18T21:53:57.679Z,6.47
2023-02-18T21:57:05.000Z,5.33
2023-02-18T22:00:19.964Z,5.17
2023-02-18T22:03:25.991Z,5.30
2023-02-18T22:06:29.781Z,4.50
2023-02-18T22:09:33.650Z,5.03
2023-02-18T22:12:37.637Z,4.47
2023-02-18T22:15:42.144Z,4.90
2023-02-18T22:18:47.515Z,5.20
2023-02-18T22:21:51.367Z,5.57
2023-02-18T22:24:55.137Z,5.40
2023-02-18T22:27:58.894Z,4.97
2023-02-18T22:31:07.631Z,6.53
2023-02-18T22:34:13.071Z,7.23
2023-02-18T22:37:16.851Z,7.17
2023-02-18T22:40:20.875Z,7.73
2023-02-18T22:43:24.744Z,8.80
2023-02-18T22:46:30.258Z,8.40
2023-02-18T22:49:35.430Z,9.10
2023-02-18T22:52:39.132Z,8.63
2023-02-18T22:55:42.843Z,7.93
2023-02-18T22:58:49.162Z,8.73
2023-02-18T23:01:53.596Z,8.63
2023-02-18T23:04:58.823Z,7.90
2023-02-18T23:08:04.309Z,10.00
2023-02-18T23:11:12.525Z,9.50
2023-02-18T23:14:21.724Z,10.00
2023-02-18T23:17:25.557Z,9.20
2023-02-18T23:20:48.130Z,10.30
2023-02-18T23:23:55.268Z,9.63
2023-02-18T23:26:59.109Z,9.57
2023-02-18T23:30:03.058Z,8.67
2023-02-18T23:33:06.872Z,8.63
2023-02-18T23:36:15.856Z,8.27
2023-02-18T23:39:21.833Z,8.47
2023-02-18T23:42:25.710Z,9.00
2023-02-18T23:45:29.865Z,9.20
2023-02-18T23:48:38.420Z,9.30
2023-02-18T23:51:44.373Z,8.20
2023-02-18T23:54:48.229Z,8.90
2023-02-18T23:57:51.919Z,9.57
